Time;durP1;ratioP1;P1;durP2;ratioP2;P2;SDS_P1;SDS_P2;PMS_P1;PMS_P2;Temp;Humidity;BMP_temperature;BMP_pressure;BME280_temperature;BME280_humidity;BME280_pressure;Samples;Min_cycle;Max_cycle;Signal;HPM_P1;HPM_P2
2021/11/16 00:00:24;;;;;;;33.67;15.00;;;5.70;99.90;;;;;;5016219;28;20117;-96
2021/11/16 00:02:50;;;;;;;31.48;15.45;;;5.70;99.90;;;;;;5000247;28;20034;-96
2021/11/16 00:05:16;;;;;;;29.70;15.00;;;5.70;99.90;;;;;;4999979;28;20058;-94
2021/11/16 00:07:42;;;;;;;33.30;15.50;;;5.70;99.90;;;;;;5000769;28;20038;-96
2021/11/16 00:10:09;;;;;;;33.22;15.38;;;5.70;99.90;;;;;;4999194;28;20014;-96
2021/11/16 00:12:36;;;;;;;30.60;16.05;;;5.70;99.90;;;;;;5001629;28;20034;-96
2021/11/16 00:15:03;;;;;;;36.53;16.50;;;5.70;99.90;;;;;;5002398;28;20033;-96
2021/11/16 00:17:29;;;;;;;31.83;15.13;;;5.70;99.90;;;;;;5003133;28;20086;-96
2021/11/16 00:19:58;;;;;;;33.60;14.80;;;5.70;99.90;;;;;;5004588;28;20041;-96
2021/11/16 00:22:28;;;;;;;39.07;16.37;;;5.70;99.90;;;;;;5020366;28;20052;-96
2021/11/16 00:27:29;;;;;;;36.15;16.42;;;5.70;99.90;;;;;;5020295;28;20034;-95
2021/11/16 00:29:55;;;;;;;37.22;16.30;;;5.70;99.90;;;;;;5003846;28;20478;-96
2021/11/16 00:32:21;;;;;;;36.83;15.77;;;5.60;99.90;;;;;;5002162;28;20014;-96
2021/11/16 00:34:47;;;;;;;35.53;15.68;;;5.70;99.90;;;;;;5018677;28;20113;-96
2021/11/16 00:37:13;;;;;;;35.85;16.15;;;5.70;99.90;;;;;;5002897;28;20044;-93
2021/11/16 00:39:40;;;;;;;32.35;14.57;;;5.70;99.90;;;;;;5004600;28;20057;-96
2021/11/16 00:42:07;;;;;;;36.83;16.48;;;5.70;99.90;;;;;;5019915;28;20125;-95
2021/11/16 00:44:34;;;;;;;34.50;15.52;;;5.70;99.90;;;;;;5003932;28;20020;-96
2021/11/16 00:47:00;;;;;;;35.28;14.93;;;5.70;99.90;;;;;;5001886;28;20028;-96
2021/11/16 00:49:26;;;;;;;36.35;16.23;;;5.70;99.90;;;;;;5037603;28;20037;-94
2021/11/16 00:51:52;;;;;;;42.08;17.52;;;5.70;99.90;;;;;;5019423;28;20045;-96
2021/11/16 00:54:19;;;;;;;35.55;16.38;;;5.60;99.90;;;;;;5021127;28;20089;-96
2021/11/16 00:56:46;;;;;;;36.25;16.15;;;5.60;99.90;;;;;;5040588;28;20055;-95
2021/11/16 00:59:13;;;;;;;36.65;15.63;;;5.60;99.90;;;;;;5023093;28;20069;-94
2021/11/16 01:01:39;;;;;;;40.72;17.80;;;5.60;99.90;;;;;;5021872;28;20017;-96
2021/11/16 01:04:06;;;;;;;38.78;17.52;;;5.60;99.90;;;;;;5039383;28;20036;-96
2021/11/16 01:06:34;;;;;;;34.72;16.25;;;5.60;99.90;;;;;;5037666;28;20050;-96
2021/11/16 01:09:00;;;;;;;31.52;15.27;;;5.60;99.90;;;;;;5021539;28;20033;-96
2021/11/16 01:11:26;;;;;;;37.00;17.40;;;5.60;99.90;;;;;;5020310;28;20572;-95
2021/11/16 01:13:53;;;;;;;33.63;16.00;;;5.60;99.90;;;;;;5033972;28;20050;-96
2021/11/16 01:16:18;;;;;;;39.13;17.50;;;5.60;99.90;;;;;;5017365;28;20032;-96
2021/11/16 01:18:56;;;;;;;37.35;17.20;;;5.60;99.90;;;;;;5018380;28;20122;-96
2021/11/16 01:21:25;;;;;;;35.58;16.15;;;5.60;99.90;;;;;;5019157;28;20456;-94
2021/11/16 01:23:50;;;;;;;31.83;16.13;;;5.60;99.90;;;;;;5018789;28;20072;-96
2021/11/16 01:26:17;;;;;;;33.10;15.00;;;5.60;99.90;;;;;;5018123;28;20029;-96
2021/11/16 01:28:43;;;;;;;35.72;17.45;;;5.60;99.90;;;;;;5016404;28;20037;-96
2021/11/16 01:31:09;;;;;;;34.25;16.85;;;5.60;99.90;;;;;;5014778;28;20057;-96
2021/11/16 01:33:44;;;;;;;32.92;16.13;;;5.60;99.90;;;;;;5015252;28;20041;-95
2021/11/16 01:36:18;;;;;;;33.25;15.70;;;5.60;99.90;;;;;;5014148;28;20128;-96
2021/11/16 01:38:44;;;;;;;32.15;14.10;;;5.60;99.90;;;;;;5048643;28;20060;-96
2021/11/16 01:41:12;;;;;;;33.03;13.93;;;5.60;99.90;;;;;;5013634;28;20060;-95
2021/11/16 01:43:39;;;;;;;33.80;14.05;;;5.60;99.90;;;;;;5014584;28;20049;-96
2021/11/16 01:49:54;;;;;;;32.70;13.80;;;5.60;99.90;;;;;;4968439;28;20067;-96
2021/11/16 01:52:20;;;;;;;32.95;14.35;;;5.60;99.90;;;;;;4936938;29;20046;-96
2021/11/16 01:54:46;;;;;;;34.13;15.27;;;5.60;99.90;;;;;;4955107;29;20039;-96
2021/11/16 01:57:12;;;;;;;40.55;17.45;;;5.60;99.90;;;;;;4936032;29;20051;-96
2021/11/16 01:59:38;;;;;;;36.28;16.13;;;5.50;99.90;;;;;;4952222;29;20047;-95
2021/11/16 02:02:05;;;;;;;35.08;14.45;;;5.60;99.90;;;;;;4951828;29;20035;-96
2021/11/16 02:04:34;;;;;;;36.87;16.57;;;5.60;99.90;;;;;;4954317;28;20035;-96
2021/11/16 02:07:00;;;;;;;35.25;16.10;;;5.60;99.90;;;;;;4973840;28;20305;-96
2021/11/16 02:09:26;;;;;;;32.28;14.82;;;5.60;99.90;;;;;;4973202;28;20057;-96
2021/11/16 02:11:53;;;;;;;32.53;15.30;;;5.50;99.90;;;;;;4972061;28;20034;-96
2021/11/16 02:14:19;;;;;;;32.83;14.38;;;5.60;99.90;;;;;;4971253;28;20162;-96
2021/11/16 02:16:46;;;;;;;28.73;12.90;;;5.60;99.90;;;;;;4972030;28;20514;-96
2021/11/16 02:19:16;;;;;;;33.90;14.68;;;5.60;99.90;;;;;;4971962;28;20170;-96
2021/11/16 02:21:42;;;;;;;32.50;14.52;;;5.60;99.90;;;;;;4974366;28;20057;-96
2021/11/16 02:24:10;;;;;;;35.08;15.02;;;5.60;99.90;;;;;;4962745;28;20035;-96
2021/11/16 02:26:36;;;;;;;29.45;13.32;;;5.60;99.90;;;;;;5024286;28;20429;-96
2021/11/16 02:29:03;;;;;;;33.70;15.27;;;5.60;99.90;;;;;;5039014;28;20060;-96
2021/11/16 02:31:30;;;;;;;33.75;15.27;;;5.60;99.90;;;;;;5021107;28;20036;-96
2021/11/16 02:33:57;;;;;;;35.03;15.77;;;5.60;99.90;;;;;;5023293;28;20021;-96
2021/11/16 02:36:32;;;;;;;36.47;16.98;;;5.60;99.90;;;;;;5022427;28;20039;-96
2021/11/16 02:38:59;;;;;;;32.67;14.30;;;5.60;99.90;;;;;;5022546;28;20057;-96
2021/11/16 02:41:31;;;;;;;34.25;14.73;;;5.60;99.90;;;;;;5021388;28;20030;-96
2021/11/16 02:43:59;;;;;;;35.65;16.58;;;5.60;99.90;;;;;;5022023;28;20044;-96
2021/11/16 02:46:26;;;;;;;32.15;15.25;;;5.60;99.90;;;;;;5020564;28;20033;-94
2021/11/16 02:48:52;;;;;;;32.42;15.43;;;5.60;99.90;;;;;;5022022;28;20038;-96
2021/11/16 02:51:18;;;;;;;32.47;15.68;;;5.60;99.90;;;;;;5022483;28;20036;-96
2021/11/16 02:53:44;;;;;;;35.03;16.52;;;5.60;99.90;;;;;;5039248;28;20109;-96
2021/11/16 02:56:11;;;;;;;36.47;16.27;;;5.60;99.90;;;;;;5021899;28;20025;-96
2021/11/16 02:58:37;;;;;;;31.95;15.07;;;5.60;99.90;;;;;;5022192;28;20099;-96
2021/11/16 03:01:10;;;;;;;31.48;14.57;;;5.60;99.90;;;;;;5023438;28;20033;-96
2021/11/16 03:03:39;;;;;;;32.03;14.13;;;5.60;99.90;;;;;;5023335;28;20124;-96
2021/11/16 03:06:05;;;;;;;32.40;15.02;;;5.60;99.90;;;;;;5021379;28;20079;-96
2021/11/16 03:08:31;;;;;;;32.63;15.00;;;5.60;99.90;;;;;;5022399;28;20021;-96
2021/11/16 03:11:05;;;;;;;40.13;16.40;;;5.60;99.90;;;;;;5021952;28;20068;-96
2021/11/16 03:13:36;;;;;;;36.42;16.48;;;5.60;99.90;;;;;;5021894;28;20026;-96
2021/11/16 03:16:12;;;;;;;34.72;14.43;;;5.60;99.90;;;;;;5038555;28;20029;-96
2021/11/16 03:18:39;;;;;;;29.40;14.38;;;5.60;99.90;;;;;;5023920;28;20096;-96
2021/11/16 03:21:07;;;;;;;36.28;15.00;;;5.60;99.90;;;;;;5021285;28;20053;-96
2021/11/16 03:23:33;;;;;;;31.27;15.15;;;5.60;99.90;;;;;;5006088;28;20033;-96
2021/11/16 03:26:02;;;;;;;34.78;15.93;;;5.60;99.90;;;;;;5021372;28;20086;-96
2021/11/16 03:28:34;;;;;;;30.85;13.25;;;5.50;99.90;;;;;;5020715;28;20117;-96
2021/11/16 03:31:19;;;;;;;36.65;15.15;;;5.60;99.90;;;;;;5036469;28;20080;-96
2021/11/16 03:33:46;;;;;;;29.60;14.35;;;5.60;99.90;;;;;;5033983;28;20067;-96
2021/11/16 03:36:17;;;;;;;31.42;13.65;;;5.60;99.90;;;;;;5033202;28;20049;-96
2021/11/16 03:38:44;;;;;;;36.13;15.07;;;5.60;99.90;;;;;;5032820;28;20053;-96
2021/11/16 03:41:11;;;;;;;35.70;16.00;;;5.60;99.90;;;;;;5016886;28;20018;-96
2021/11/16 03:43:39;;;;;;;32.13;14.93;;;5.60;99.90;;;;;;5017438;28;20056;-96
2021/11/16 03:46:25;;;;;;;33.85;15.73;;;5.60;99.90;;;;;;5016359;28;20075;-96
2021/11/16 03:48:53;;;;;;;32.30;14.43;;;5.60;99.90;;;;;;4957140;28;20039;-96
2021/11/16 03:51:19;;;;;;;36.55;15.95;;;5.60;99.90;;;;;;4956739;28;20038;-96
2021/11/16 03:53:46;;;;;;;36.45;16.08;;;5.60;99.90;;;;;;4974090;28;20050;-96
2021/11/16 03:56:12;;;;;;;38.03;16.75;;;5.60;99.90;;;;;;4974795;28;20051;-96
2021/11/16 03:58:42;;;;;;;33.60;15.35;;;5.60;99.90;;;;;;4956641;28;20054;-96
2021/11/16 04:01:09;;;;;;;34.45;15.60;;;5.60;99.90;;;;;;4957620;28;20098;-96
2021/11/16 04:03:37;;;;;;;34.97;15.63;;;5.50;99.90;;;;;;4957628;28;20166;-96
2021/11/16 04:06:05;;;;;;;33.85;15.55;;;5.50;99.90;;;;;;4958664;28;20098;-96
2021/11/16 04:08:31;;;;;;;37.05;16.08;;;5.50;99.90;;;;;;4957126;28;20037;-96
2021/11/16 04:10:57;;;;;;;38.15;17.42;;;5.50;99.90;;;;;;4972589;28;20043;-96
2021/11/16 04:13:25;;;;;;;38.33;17.27;;;5.50;99.90;;;;;;4973691;28;20049;-96
2021/11/16 04:15:51;;;;;;;38.10;18.08;;;5.50;99.90;;;;;;4973865;28;20063;-96
2021/11/16 04:18:19;;;;;;;43.30;16.60;;;5.50;99.90;;;;;;4974638;28;20555;-96
2021/11/16 04:20:47;;;;;;;38.03;16.63;;;5.50;99.90;;;;;;4973254;28;20039;-96
2021/11/16 04:23:15;;;;;;;35.00;16.35;;;5.60;99.90;;;;;;4956086;28;20042;-96
2021/11/16 04:25:42;;;;;;;37.50;16.73;;;5.60;99.90;;;;;;4980745;28;20049;-96
2021/11/16 04:28:10;;;;;;;34.72;16.10;;;5.60;99.90;;;;;;5015569;28;20037;-96
2021/11/16 04:30:36;;;;;;;35.85;16.45;;;5.50;99.90;;;;;;5015468;28;20460;-96
2021/11/16 04:33:03;;;;;;;39.28;17.23;;;5.50;99.90;;;;;;5014798;28;20045;-96
2021/11/16 04:35:30;;;;;;;31.38;15.23;;;5.60;99.90;;;;;;5015491;28;20128;-96
2021/11/16 04:37:58;;;;;;;36.90;16.80;;;5.50;99.90;;;;;;5015536;28;20045;-96
2021/11/16 04:40:32;;;;;;;38.78;16.27;;;5.60;99.90;;;;;;5016656;28;20041;-96
2021/11/16 04:43:00;;;;;;;33.50;14.90;;;5.50;99.90;;;;;;5031835;28;20029;-96
2021/11/16 04:45:27;;;;;;;34.08;16.13;;;5.60;99.90;;;;;;5012977;28;20029;-96
2021/11/16 04:48:19;;;;;;;39.40;18.25;;;5.50;99.90;;;;;;5001640;28;20026;-96
2021/11/16 04:51:15;;;;;;;39.22;17.52;;;5.50;99.90;;;;;;5010474;28;20061;-96
2021/11/16 05:04:39;;;;;;;28.02;11.95;;;5.50;99.90;;;;;;5013052;28;20037;-95
2021/11/16 05:07:16;;;;;;;37.33;15.88;;;5.40;99.90;;;;;;5015667;28;20025;-96
2021/11/16 05:09:46;;;;;;;42.42;19.33;;;5.40;99.90;;;;;;5013443;28;20030;-91
2021/11/16 05:12:12;;;;;;;;;;;5.40;99.90;;;;;;5013433;28;20037;-90
2021/11/16 05:14:37;;;;;;;40.65;16.85;;;5.30;99.90;;;;;;5013092;28;19909;-92
2021/11/16 05:17:03;;;;;;;41.15;16.67;;;5.40;99.90;;;;;;5001939;28;20368;-92
2021/11/16 05:19:30;;;;;;;37.63;17.23;;;5.50;99.90;;;;;;4974122;28;20046;-91
2021/11/16 05:21:56;;;;;;;45.28;20.25;;;5.40;99.90;;;;;;4973572;28;20491;-92
2021/11/16 05:24:24;;;;;;;42.53;19.30;;;5.30;99.90;;;;;;4974032;28;20110;-91
2021/11/16 05:26:53;;;;;;;40.25;16.33;;;5.40;99.90;;;;;;4973766;28;20042;-92
2021/11/16 05:29:19;;;;;;;40.38;17.27;;;5.40;99.90;;;;;;4973612;28;20068;-91
2021/11/16 05:31:45;;;;;;;47.80;18.67;;;5.30;99.90;;;;;;5005388;28;20048;-91
2021/11/16 05:34:10;;;;;;;44.92;19.75;;;5.30;99.90;;;;;;4973259;28;20113;-92
2021/11/16 05:36:36;;;;;;;48.95;21.20;;;5.30;99.90;;;;;;5006480;28;20462;-91
2021/11/16 05:39:04;;;;;;;44.10;18.02;;;5.30;99.90;;;;;;4981696;28;20038;-92
2021/11/16 05:41:29;;;;;;;52.67;21.80;;;5.30;99.90;;;;;;4992812;28;20030;-91
2021/11/16 05:43:55;;;;;;;52.00;22.13;;;5.20;99.90;;;;;;4992859;28;20030;-92
2021/11/16 05:46:22;;;;;;;52.58;20.90;;;5.20;99.90;;;;;;4992416;28;20036;-96
2021/11/16 05:48:50;;;;;;;58.17;23.35;;;5.30;99.90;;;;;;5023956;28;20051;-92
2021/11/16 05:51:17;;;;;;;54.17;22.15;;;5.20;99.90;;;;;;5012365;28;20037;-91
2021/11/16 05:53:45;;;;;;;54.35;22.73;;;5.20;99.90;;;;;;5012208;28;20474;-91
2021/11/16 05:56:12;;;;;;;54.20;21.90;;;5.20;99.90;;;;;;5011873;28;20057;-91
2021/11/16 05:58:41;;;;;;;53.22;23.10;;;5.20;99.90;;;;;;5011863;28;20033;-91
2021/11/16 06:01:08;;;;;;;47.35;20.38;;;5.20;99.90;;;;;;5011662;28;20128;-92
2021/11/16 06:03:33;;;;;;;57.97;23.35;;;5.20;99.90;;;;;;5011983;28;20037;-91
2021/11/16 06:05:59;;;;;;;54.40;22.20;;;5.20;99.90;;;;;;5012127;28;20029;-91
2021/11/16 06:08:27;;;;;;;46.40;19.08;;;5.10;99.90;;;;;;5012185;28;20113;-91
2021/11/16 06:10:55;;;;;;;48.20;19.50;;;5.10;99.90;;;;;;5012078;28;20056;-91
2021/11/16 06:13:21;;;;;;;48.50;21.17;;;5.10;99.90;;;;;;5011701;28;20034;-91
2021/11/16 06:15:47;;;;;;;52.40;21.17;;;5.10;99.90;;;;;;5011469;28;20061;-91
2021/11/16 06:18:24;;;;;;;53.30;20.83;;;5.10;99.90;;;;;;5011624;28;20037;-92
2021/11/16 06:20:54;;;;;;;51.87;20.13;;;5.10;99.90;;;;;;5012005;28;20116;-92
2021/11/16 06:23:20;;;;;;;53.17;21.80;;;5.10;99.90;;;;;;4994513;28;20276;-92
2021/11/16 06:25:46;;;;;;;46.50;18.05;;;5.10;99.90;;;;;;4991446;28;20038;-91
2021/11/16 06:28:13;;;;;;;48.75;18.52;;;5.10;99.90;;;;;;4997672;28;20030;-90
2021/11/16 06:30:38;;;;;;;43.63;18.05;;;5.20;99.90;;;;;;4991485;28;20044;-91
2021/11/16 06:33:04;;;;;;;46.60;17.98;;;5.20;99.90;;;;;;4992537;28;20121;-91
2021/11/16 06:35:30;;;;;;;61.42;22.73;;;5.10;99.90;;;;;;4991980;28;20059;-92
2021/11/16 06:37:56;;;;;;;49.80;19.88;;;5.10;99.90;;;;;;4991529;28;20041;-91
2021/11/16 06:40:22;;;;;;;52.55;21.23;;;5.10;99.90;;;;;;4990617;28;20034;-93
2021/11/16 06:42:48;;;;;;;50.15;20.80;;;5.10;99.90;;;;;;4994683;28;20030;-91
2021/11/16 06:45:14;;;;;;;53.28;19.17;;;5.10;99.90;;;;;;4998029;28;20061;-93
2021/11/16 06:47:41;;;;;;;54.60;21.55;;;5.10;99.90;;;;;;5009974;28;20033;-93
2021/11/16 06:50:07;;;;;;;54.15;20.33;;;5.10;99.90;;;;;;4991723;28;20025;-93
2021/11/16 06:52:35;;;;;;;49.60;19.92;;;5.10;99.90;;;;;;4991398;28;20084;-93
2021/11/16 06:55:06;;;;;;;47.42;18.38;;;5.10;99.90;;;;;;5005663;28;20064;-93
2021/11/16 06:57:33;;;;;;;49.47;18.98;;;5.20;99.90;;;;;;4992283;28;20045;-93
2021/11/16 06:59:59;;;;;;;49.80;18.77;;;5.10;99.90;;;;;;4992171;28;20034;-90
2021/11/16 07:02:27;;;;;;;48.45;18.48;;;5.10;99.90;;;;;;4991535;28;20041;-93
2021/11/16 07:04:54;;;;;;;45.90;18.13;;;5.10;99.90;;;;;;4994852;28;20030;-93
2021/11/16 07:07:19;;;;;;;43.15;16.67;;;5.10;99.90;;;;;;5011684;28;20401;-93
2021/11/16 07:09:45;;;;;;;44.33;16.83;;;5.10;99.90;;;;;;5014644;28;20047;-93
2021/11/16 07:12:24;;;;;;;44.38;17.27;;;5.10;99.90;;;;;;5015241;28;20046;-93
2021/11/16 07:14:50;;;;;;;33.90;15.07;;;5.10;99.90;;;;;;5015042;28;20060;-93
2021/11/16 07:17:17;;;;;;;46.33;17.70;;;5.10;99.90;;;;;;4999594;28;20038;-91
2021/11/16 07:19:49;;;;;;;47.85;18.23;;;5.10;99.90;;;;;;4995274;28;20049;-91
2021/11/16 07:22:18;;;;;;;43.42;16.70;;;5.10;99.90;;;;;;4982056;28;20132;-92
2021/11/16 07:24:50;;;;;;;49.25;18.42;;;5.10;99.90;;;;;;5009365;28;20034;-93
2021/11/16 07:27:20;;;;;;;47.22;17.98;;;5.10;99.90;;;;;;5010769;28;20048;-92
2021/11/16 07:29:51;;;;;;;;;;;5.10;99.90;;;;;;5027744;28;20049;-90
2021/11/16 07:32:41;;;;;;;42.95;15.18;;;5.20;99.90;;;;;;5009997;28;19925;-87
2021/11/16 07:35:08;;;;;;;37.80;14.82;;;5.20;99.90;;;;;;4998737;28;20129;-89
2021/11/16 07:37:39;;;;;;;43.47;14.95;;;5.20;99.90;;;;;;4999387;28;20044;-89
2021/11/16 07:40:07;;;;;;;40.90;15.48;;;5.20;99.90;;;;;;5009435;28;20073;-89
2021/11/16 07:42:48;;;;;;;38.15;15.10;;;5.30;99.90;;;;;;5004133;28;20018;-90
2021/11/16 07:45:18;;;;;;;46.65;16.33;;;5.30;99.90;;;;;;5009570;28;20038;-89
2021/11/16 07:48:18;;;;;;;42.45;15.15;;;5.20;99.90;;;;;;4993626;28;20053;-88
2021/11/16 07:50:57;;;;;;;39.60;14.77;;;5.30;99.90;;;;;;5007947;28;20092;-88
2021/11/16 07:53:39;;;;;;;42.05;14.68;;;5.30;99.90;;;;;;5007572;28;20106;-88
2021/11/16 07:56:14;;;;;;;38.47;14.77;;;5.30;99.90;;;;;;5009624;28;20030;-89
2021/11/16 07:58:56;;;;;;;43.92;15.77;;;5.30;99.90;;;;;;5004920;28;20462;-87
2021/11/16 08:01:35;;;;;;;43.05;15.40;;;5.30;99.90;;;;;;5003995;28;20070;-87
2021/11/16 08:05:03;;;;;;;47.33;14.73;;;5.30;99.90;;;;;;5008697;28;20046;-87
2021/11/16 08:07:14;;;;;;;43.42;15.40;;;5.30;99.90;;;;;;5005745;28;20065;-88
2021/11/16 08:09:47;;;;;;;40.17;14.93;;;5.30;99.90;;;;;;5008588;28;20033;-87
2021/11/16 08:14:45;;;;;;;43.15;15.57;;;5.20;99.90;;;;;;5004577;28;20029;-88
2021/11/16 08:17:13;;;;;;;44.70;15.43;;;5.20;99.90;;;;;;4994505;28;20064;-87
2021/11/16 08:19:40;;;;;;;41.03;14.93;;;5.20;99.90;;;;;;5005092;28;20073;-88
2021/11/16 08:22:10;;;;;;;45.00;15.98;;;5.20;99.90;;;;;;4982861;28;20064;-87
2021/11/16 08:24:38;;;;;;;42.67;16.52;;;5.30;99.90;;;;;;5008139;28;20041;-88
2021/11/16 08:27:11;;;;;;;46.97;15.75;;;5.30;99.90;;;;;;4991574;28;20037;-87
2021/11/16 08:29:45;;;;;;;49.85;17.40;;;5.30;99.90;;;;;;4991049;28;20048;-88
2021/11/16 08:32:17;;;;;;;47.80;17.48;;;5.30;99.90;;;;;;4992046;28;20035;-87
2021/11/16 08:34:47;;;;;;;48.03;17.75;;;5.20;99.90;;;;;;4987780;28;20081;-89
2021/11/16 08:37:14;;;;;;;52.38;18.83;;;5.20;99.90;;;;;;4991691;28;20041;-87
2021/11/16 08:39:47;;;;;;;50.08;18.85;;;5.30;99.90;;;;;;4991085;28;20058;-86
2021/11/16 08:42:25;;;;;;;46.78;17.75;;;5.20;99.90;;;;;;4999986;28;20041;-93
2021/11/16 08:45:05;;;;;;;42.70;15.88;;;5.30;99.90;;;;;;4988520;28;20026;-89
2021/11/16 08:47:33;;;;;;;;;;;5.20;99.90;;;;;;5007740;28;20026;-92
2021/11/16 08:50:00;;;;;;;44.25;15.13;;;5.20;99.90;;;;;;5007744;28;19909;-93
2021/11/16 08:52:29;;;;;;;49.38;17.13;;;5.20;99.90;;;;;;4991050;28;20026;-91
2021/11/16 08:55:07;;;;;;;54.05;16.88;;;5.20;99.90;;;;;;4998856;28;20486;-90
2021/11/16 08:57:35;;;;;;;41.92;16.75;;;5.20;99.90;;;;;;5007742;28;20036;-91
2021/11/16 09:00:12;;;;;;;36.38;13.02;;;5.30;99.90;;;;;;4991180;28;20045;-91
2021/11/16 09:02:38;;;;;;;45.92;16.90;;;5.30;99.90;;;;;;4990677;28;20026;-90
2021/11/16 09:05:16;;;;;;;44.28;17.27;;;5.20;99.90;;;;;;4985087;28;20038;-93
2021/11/16 09:07:54;;;;;;;44.10;15.35;;;5.30;99.90;;;;;;5003637;28;20371;-89
2021/11/16 09:10:20;;;;;;;43.83;16.20;;;5.30;99.90;;;;;;4991364;28;20022;-89
2021/11/16 09:12:51;;;;;;;41.88;15.20;;;5.40;99.90;;;;;;5000099;28;20037;-91
2021/11/16 09:15:41;;;;;;;44.40;15.18;;;5.30;99.90;;;;;;5023097;28;20027;-89
2021/11/16 09:18:29;;;;;;;47.63;16.05;;;5.40;99.90;;;;;;4982538;28;20052;-88
2021/11/16 09:21:04;;;;;;;40.42;14.50;;;5.30;99.90;;;;;;4980884;28;20042;-91
2021/11/16 09:23:34;;;;;;;34.90;13.75;;;5.40;99.90;;;;;;5007253;28;20513;-90
2021/11/16 09:26:17;;;;;;;;;;;5.40;99.90;;;;;;5007257;28;20096;-89
2021/11/16 09:28:51;;;;;;;40.88;14.55;;;5.40;99.90;;;;;;4992275;28;19936;-88
2021/11/16 09:31:55;;;;;;;47.45;16.30;;;5.30;99.90;;;;;;5006410;28;20044;-92
2021/11/16 09:34:30;;;;;;;51.22;18.73;;;5.20;99.90;;;;;;4992492;28;20054;-87
2021/11/16 09:36:56;;;;;;;51.40;17.80;;;5.20;99.90;;;;;;4990333;28;20030;-94
2021/11/16 09:39:26;;;;;;;46.28;15.93;;;5.30;99.90;;;;;;5005154;28;20072;-87
2021/11/16 09:41:58;;;;;;;43.45;15.20;;;5.40;99.90;;;;;;5007329;28;20523;-87
2021/11/16 09:44:28;;;;;;;40.47;14.75;;;5.50;99.90;;;;;;5006635;28;20493;-86
2021/11/16 09:47:06;;;;;;;39.92;16.05;;;5.50;99.90;;;;;;5006825;28;20045;-88
2021/11/16 09:49:57;;;;;;;38.85;14.85;;;5.40;99.90;;;;;;5005532;28;20030;-87
2021/11/16 09:52:43;;;;;;;37.10;13.90;;;5.50;99.90;;;;;;4984166;28;20103;-88
2021/11/16 09:55:12;;;;;;;46.53;15.65;;;5.50;99.90;;;;;;5021782;28;20030;-89
2021/11/16 09:57:44;;;;;;;44.28;16.20;;;5.40;99.90;;;;;;4989845;28;20193;-89
2021/11/16 10:00:19;;;;;;;38.97;15.80;;;5.40;99.90;;;;;;5006718;28;20478;-87
2021/11/16 10:02:50;;;;;;;44.13;16.05;;;5.50;99.90;;;;;;5002112;28;20391;-88
2021/11/16 10:05:22;;;;;;;38.03;13.63;;;5.60;99.90;;;;;;4990546;28;20121;-88
2021/11/16 10:07:53;;;;;;;39.83;15.13;;;5.50;99.90;;;;;;4992807;28;20026;-88
2021/11/16 10:10:23;;;;;;;39.80;14.52;;;5.50;99.90;;;;;;5003128;28;20030;-87
2021/11/16 10:12:54;;;;;;;40.10;14.27;;;5.50;99.90;;;;;;4988806;28;20026;-87
2021/11/16 10:15:23;;;;;;;36.08;14.15;;;5.50;99.90;;;;;;4993508;28;20064;-87
2021/11/16 10:17:50;;;;;;;40.47;14.63;;;5.50;99.90;;;;;;5006419;28;20034;-88
2021/11/16 10:20:20;;;;;;;42.63;14.82;;;5.50;99.90;;;;;;5014078;28;20042;-87
2021/11/16 10:22:51;;;;;;;37.78;14.10;;;5.50;99.90;;;;;;4976965;28;20046;-88
2021/11/16 10:25:21;;;;;;;40.95;14.95;;;5.60;99.90;;;;;;4993051;28;20049;-87
2021/11/16 10:27:49;;;;;;;40.15;14.68;;;5.50;99.90;;;;;;5006578;28;20068;-88
2021/11/16 10:30:24;;;;;;;38.30;14.60;;;5.50;99.90;;;;;;5002349;28;20132;-88
2021/11/16 10:33:10;;;;;;;36.95;14.07;;;5.60;99.90;;;;;;4989672;28;20037;-87
2021/11/16 10:35:46;;;;;;;37.63;14.00;;;5.60;99.90;;;;;;5003644;28;20681;-87
2021/11/16 10:38:17;;;;;;;37.80;13.07;;;5.60;99.90;;;;;;5013801;28;20117;-88
2021/11/16 10:40:44;;;;;;;33.10;13.60;;;5.60;99.90;;;;;;5005625;28;20045;-88
2021/11/16 10:43:09;;;;;;;35.38;13.23;;;5.60;99.90;;;;;;5008552;28;20109;-87
2021/11/16 10:45:44;;;;;;;38.53;13.43;;;5.60;99.90;;;;;;4996286;28;20061;-85
2021/11/16 10:48:12;;;;;;;36.83;13.32;;;5.60;99.90;;;;;;4993435;28;20034;-86
2021/11/16 10:50:43;;;;;;;37.67;14.55;;;5.60;99.90;;;;;;5008437;28;20026;-87
2021/11/16 10:53:12;;;;;;;34.00;13.05;;;5.50;99.90;;;;;;5008279;28;20116;-88
2021/11/16 10:55:42;;;;;;;31.13;12.07;;;5.50;99.90;;;;;;5027540;28;20051;-86
2021/11/16 10:58:09;;;;;;;;;;;5.60;99.90;;;;;;5010253;28;20026;-86
2021/11/16 11:00:43;;;;;;;31.52;12.05;;;5.60;99.90;;;;;;4997119;28;19929;-86
2021/11/16 11:03:22;;;;;;;34.85;13.15;;;5.60;99.90;;;;;;5009703;28;20034;-90
2021/11/16 11:05:50;;;;;;;42.88;14.68;;;5.50;99.90;;;;;;5012867;28;20073;-86
2021/11/16 11:08:52;;;;;;;42.58;16.50;;;5.40;99.90;;;;;;4998164;28;20037;-90
2021/11/16 11:11:26;;;;;;;34.53;13.65;;;5.40;99.90;;;;;;4993529;28;20050;-89
2021/11/16 11:14:19;;;;;;;39.40;13.40;;;5.50;99.90;;;;;;4993432;28;20088;-90
2021/11/16 11:16:54;;;;;;;37.78;13.60;;;5.50;99.90;;;;;;4992378;28;20074;-87
2021/11/16 11:19:27;;;;;;;35.28;13.15;;;5.50;99.90;;;;;;5009779;28;20134;-89
2021/11/16 11:22:18;;;;;;;34.72;12.55;;;5.50;99.90;;;;;;4997017;28;20057;-91
2021/11/16 11:29:55;;;;;;;28.88;11.73;;;5.50;99.90;;;;;;5009635;28;20030;-92
2021/11/16 11:32:34;;;;;;;29.00;11.40;;;5.50;99.90;;;;;;5009371;28;20041;-94
2021/11/16 11:35:10;;;;;;;32.72;13.60;;;5.50;99.90;;;;;;5005950;28;20084;-92
2021/11/16 11:37:41;;;;;;;35.67;12.98;;;5.50;99.90;;;;;;5023317;28;20065;-87
2021/11/16 11:40:10;;;;;;;35.47;13.10;;;5.60;99.90;;;;;;5008831;28;20064;-86
2021/11/16 11:42:47;;;;;;;28.60;12.02;;;5.60;99.90;;;;;;4995610;28;20044;-87
2021/11/16 11:45:24;;;;;;;27.60;11.68;;;5.60;99.90;;;;;;5009158;28;20049;-87
2021/11/16 11:47:59;;;;;;;35.20;12.68;;;5.60;99.90;;;;;;5010330;28;20026;-86
2021/11/16 11:50:33;;;;;;;29.42;11.60;;;5.70;99.90;;;;;;5014984;28;20030;-86
2021/11/16 11:53:21;;;;;;;30.67;12.65;;;5.70;99.90;;;;;;5004427;28;20041;-87
2021/11/16 11:55:55;;;;;;;34.35;13.98;;;5.60;99.90;;;;;;5002826;28;20102;-86
2021/11/16 11:58:23;;;;;;;34.67;12.75;;;5.50;99.90;;;;;;5013236;28;20029;-86
2021/11/16 12:00:52;;;;;;;30.65;12.90;;;5.50;99.90;;;;;;5020024;28;20062;-86
2021/11/16 12:03:22;;;;;;;35.45;13.95;;;5.50;99.90;;;;;;5018088;28;20018;-85
2021/11/16 12:05:49;;;;;;;30.98;12.73;;;5.60;99.90;;;;;;4999477;28;20030;-94
2021/11/16 12:08:15;;;;;;;32.72;13.55;;;5.60;99.90;;;;;;5018390;28;20018;-89
2021/11/16 12:10:43;;;;;;;37.08;15.38;;;5.50;99.90;;;;;;5012971;28;20056;-94
2021/11/16 12:13:10;;;;;;;38.42;13.40;;;5.50;99.90;;;;;;5014641;28;20018;-92
2021/11/16 12:15:49;;;;;;;37.03;14.20;;;5.50;99.90;;;;;;5009160;28;20034;-88
2021/11/16 12:18:16;;;;;;;38.63;15.35;;;5.50;99.90;;;;;;5008706;28;20054;-88
2021/11/16 12:20:49;;;;;;;35.55;13.77;;;5.40;99.90;;;;;;5007642;28;20478;-85
2021/11/16 12:23:18;;;;;;;32.85;12.80;;;5.40;99.90;;;;;;4998918;28;20046;-91
2021/11/16 12:25:47;;;;;;;37.53;14.90;;;5.50;99.90;;;;;;5008215;28;20117;-89
2021/11/16 12:28:25;;;;;;;39.63;15.15;;;5.40;99.90;;;;;;5009674;28;20514;-86
2021/11/16 12:30:51;;;;;;;35.63;14.45;;;5.30;99.90;;;;;;5009925;28;20033;-90
2021/11/16 12:33:42;;;;;;;43.55;15.65;;;5.40;99.90;;;;;;5009713;28;20033;-86
2021/11/16 12:36:09;;;;;;;45.70;17.75;;;5.40;99.90;;;;;;5009310;28;20053;-94
2021/11/16 12:38:39;;;;;;;44.35;17.08;;;5.40;99.90;;;;;;5009060;28;20030;-87
2021/11/16 12:41:27;;;;;;;42.95;15.77;;;5.30;99.90;;;;;;5007842;28;20117;-87
2021/11/16 12:43:53;;;;;;;41.35;16.65;;;5.40;99.90;;;;;;5019389;28;20101;-89
2021/11/16 12:46:21;;;;;;;48.83;17.77;;;5.30;99.90;;;;;;5000178;28;20036;-89
2021/11/16 12:48:51;;;;;;;35.67;13.13;;;5.30;99.90;;;;;;5007782;28;20040;-89
2021/11/16 12:51:38;;;;;;;39.95;15.98;;;5.40;99.90;;;;;;5008625;28;20029;-89
2021/11/16 12:54:27;;;;;;;44.03;16.73;;;5.30;99.90;;;;;;5004239;28;20033;-88
2021/11/16 12:56:53;;;;;;;42.20;16.17;;;5.40;99.90;;;;;;5007491;28;20034;-89
2021/11/16 12:59:24;;;;;;;38.03;13.63;;;5.40;99.90;;;;;;5010402;28;20050;-86
2021/11/16 13:01:56;;;;;;;34.70;12.45;;;5.50;99.90;;;;;;5005613;28;20470;-90
2021/11/16 13:04:37;;;;;;;30.23;11.70;;;5.60;99.90;;;;;;5008598;28;20037;-87
2021/11/16 13:07:32;;;;;;;27.70;10.70;;;5.60;99.90;;;;;;5006124;28;20060;-87
2021/11/16 13:10:00;;;;;;;26.73;10.50;;;5.70;99.90;;;;;;5004913;28;20061;-86
2021/11/16 13:12:47;;;;;;;28.15;10.88;;;5.70;99.90;;;;;;5007510;28;20034;-95
2021/11/16 13:15:40;;;;;;;30.00;11.30;;;5.70;99.90;;;;;;4989399;28;20058;-86
2021/11/16 13:18:11;;;;;;;25.00;9.52;;;5.70;99.90;;;;;;5006689;28;20052;-86
2021/11/16 13:20:49;;;;;;;29.67;10.57;;;5.70;99.90;;;;;;5007261;28;20065;-88